Jeongseok Airport


Codes: RKPD/JDG
Name: Jeongseok Airport
City: Jeju Island
Country: South Korea
Elevation: 1171 ft.
Wikipedia:

Photos at Jeongseok Airport


   Photos courtesy of SpottingLog. You can add your own sightings and photos by signing up for a free trial today.



No photos found.

Weather at Jeongseok Airport


Time (UTC)DescriptionTempratureWindCloud coverageVisibilityPressureHumidity
15-Apr-2024 18:00Clear Sky13°C2 mph, W1%10000m1014hPa84%
15-Apr-2024 21:00Few Clouds13°C2 mph, SW19%10000m1014hPa81%
16-Apr-2024 00:00Few Clouds16°C2 mph, NW23%10000m1014hPa66%
16-Apr-2024 03:00Clear Sky18°C2 mph, NW1%10000m1014hPa61%
16-Apr-2024 06:00Clear Sky18°C4 mph, NW2%10000m1013hPa63%
16-Apr-2024 09:00Scattered Clouds16°C2 mph, NW30%10000m1014hPa72%
16-Apr-2024 12:00Broken Clouds14°C4 mph, W65%10000m1015hPa79%
16-Apr-2024 15:00Overcast Clouds13°C7 mph, W99%10000m1015hPa75%
16-Apr-2024 18:00Overcast Clouds12°C7 mph, NW100%10000m1014hPa67%
16-Apr-2024 21:00Overcast Clouds12°C4 mph, NW100%10000m1014hPa66%
17-Apr-2024 00:00Overcast Clouds15°C4 mph, NW99%10000m1014hPa50%
17-Apr-2024 03:00Broken Clouds17°C0 mph, N80%10000m1013hPa51%
17-Apr-2024 06:00Broken Clouds17°C0 mph, W78%10000m1012hPa59%
17-Apr-2024 09:00Overcast Clouds15°C2 mph, NW100%10000m1011hPa65%
17-Apr-2024 12:00Overcast Clouds14°C2 mph, S100%10000m1012hPa72%
17-Apr-2024 15:00Overcast Clouds13°C4 mph, NW92%10000m1012hPa70%
17-Apr-2024 18:00Broken Clouds12°C4 mph, NW80%10000m1011hPa60%
17-Apr-2024 21:00Scattered Clouds12°C4 mph, NW40%10000m1011hPa61%
18-Apr-2024 00:00Few Clouds15°C4 mph, NW19%10000m1012hPa49%
18-Apr-2024 03:00Clear Sky17°C4 mph, NW0%10000m1013hPa51%
18-Apr-2024 06:00Clear Sky17°C4 mph, NW0%10000m1012hPa45%
18-Apr-2024 09:00Clear Sky16°C4 mph, W3%10000m1012hPa49%
18-Apr-2024 12:00Clear Sky14°C4 mph, W2%10000m1013hPa63%
18-Apr-2024 15:00Clear Sky14°C4 mph, W1%10000m1014hPa60%
18-Apr-2024 18:00Scattered Clouds14°C4 mph, SW27%10000m1014hPa60%
18-Apr-2024 21:00Overcast Clouds13°C2 mph, NW100%10000m1014hPa62%
19-Apr-2024 00:00Overcast Clouds17°C2 mph, SE91%10000m1014hPa51%
19-Apr-2024 03:00Overcast Clouds19°C7 mph, S100%10000m1014hPa44%
19-Apr-2024 06:00Overcast Clouds19°C4 mph, S100%10000m1013hPa41%
19-Apr-2024 09:00Broken Clouds17°C7 mph, S55%10000m1012hPa48%
19-Apr-2024 12:00Broken Clouds15°C4 mph, S60%10000m1013hPa67%
19-Apr-2024 15:00Broken Clouds14°C7 mph, S84%10000m1012hPa76%
19-Apr-2024 18:00Overcast Clouds14°C7 mph, S92%10000m1009hPa82%
19-Apr-2024 21:00Light Rain14°C13 mph, SE100%8520m1006hPa91%
20-Apr-2024 00:00Heavy Intensity Rain16°C20 mph, S100%363m1002hPa96%
20-Apr-2024 03:00Moderate Rain17°C22 mph, SW100%5417m1000hPa93%
20-Apr-2024 06:00Light Rain16°C11 mph, SW97%1008m999hPa92%
20-Apr-2024 09:00Overcast Clouds14°C16 mph, W89%9767m1000hPa91%
20-Apr-2024 12:00Broken Clouds11°C20 mph, NW73%10000m1003hPa89%
20-Apr-2024 15:00Light Rain10°C16 mph, NW100%10000m1007hPa91%